createdAt,value
2023-05-20T03:02:40.427Z,15.20
2023-05-20T03:05:09.733Z,15.20
2023-05-20T03:07:37.933Z,15.20
2023-05-20T03:10:09.297Z,15.20
2023-05-20T03:12:40.067Z,15.10
2023-05-20T03:15:13.623Z,15.20
2023-05-20T03:17:42.953Z,15.20
2023-05-20T03:20:12.744Z,15.20
2023-05-20T03:22:41.469Z,15.20
2023-05-20T03:25:10.687Z,15.20
2023-05-20T03:27:38.721Z,15.30
2023-05-20T03:30:08.479Z,15.20
2023-05-20T03:32:36.943Z,15.20
2023-05-20T03:35:07.510Z,15.20
2023-05-20T03:37:35.702Z,15.30
2023-05-20T03:40:06.065Z,15.20
2023-05-20T03:42:34.965Z,15.30
2023-05-20T03:45:03.176Z,15.30
2023-05-20T03:47:35.610Z,15.30
2023-05-20T03:50:03.533Z,15.30
2023-05-20T03:52:34.550Z,15.40
2023-05-20T03:55:02.745Z,15.50
2023-05-20T03:57:32.207Z,15.50
2023-05-20T04:00:02.205Z,15.60
2023-05-20T04:02:33.420Z,15.60
2023-05-20T04:05:02.296Z,15.60
2023-05-20T04:07:30.780Z,15.60
2023-05-20T04:10:00.407Z,15.60
2023-05-20T04:12:30.650Z,15.50
2023-05-20T04:15:01.114Z,15.60
2023-05-20T04:17:31.877Z,15.60
2023-05-20T04:20:00.418Z,15.60
2023-05-20T04:22:28.677Z,15.60
2023-05-20T04:24:56.645Z,15.50
2023-05-20T04:27:26.703Z,15.60
2023-05-20T04:29:55.024Z,15.60
2023-05-20T04:32:23.733Z,15.50
2023-05-20T04:34:51.699Z,15.50
2023-05-20T04:37:19.959Z,15.50
2023-05-20T04:39:48.216Z,15.50
2023-05-20T04:42:17.793Z,15.50
2023-05-20T04:44:48.043Z,15.50
2023-05-20T04:47:16.392Z,15.50
2023-05-20T04:49:45.656Z,15.60
2023-05-20T04:52:13.825Z,15.50
2023-05-20T04:54:41.713Z,15.50
2023-05-20T04:57:11.184Z,15.50
2023-05-20T04:59:39.085Z,15.60
2023-05-20T05:02:08.482Z,15.70
2023-05-20T05:04:36.433Z,15.70
2023-05-20T05:07:05.388Z,15.70
2023-05-20T05:09:34.959Z,15.60
2023-05-20T05:12:03.696Z,15.60
2023-05-20T05:14:31.600Z,15.50
2023-05-20T05:16:59.581Z,15.50
2023-05-20T05:19:29.084Z,15.50
2023-05-20T05:21:57.070Z,15.60
2023-05-20T05:24:25.188Z,15.60
2023-05-20T05:26:55.072Z,15.60
2023-05-20T05:29:23.325Z,15.70
2023-05-20T05:31:51.288Z,15.70
2023-05-20T05:34:19.985Z,15.70
2023-05-20T05:36:49.267Z,15.70
2023-05-20T05:39:17.622Z,15.70
2023-05-20T05:41:45.670Z,15.60
2023-05-20T05:44:15.093Z,15.70
2023-05-20T05:46:43.050Z,15.70
2023-05-20T05:49:11.763Z,15.60
2023-05-20T05:51:39.835Z,15.60
2023-05-20T05:54:09.610Z,15.70
2023-05-20T05:56:37.514Z,15.70
2023-05-20T05:59:05.969Z,15.70
2023-05-20T06:01:33.988Z,15.80
2023-05-20T06:04:01.978Z,15.80
2023-05-20T06:06:32.289Z,16.00
2023-05-20T06:09:00.356Z,16.00
2023-05-20T06:11:29.735Z,16.10
2023-05-20T06:13:57.733Z,16.20
2023-05-20T06:16:26.123Z,16.20
2023-05-20T06:18:57.099Z,16.30
2023-05-20T06:21:25.118Z,16.40
2023-05-20T06:23:53.101Z,16.50
2023-05-20T06:26:21.135Z,16.50
2023-05-20T06:28:50.617Z,16.60
2023-05-20T06:31:19.026Z,16.60
2023-05-20T06:33:47.121Z,16.70
2023-05-20T06:36:16.277Z,16.70
2023-05-20T06:38:44.164Z,16.80
2023-05-20T06:41:14.420Z,16.90
2023-05-20T06:43:42.388Z,16.90
2023-05-20T06:46:31.605Z,17.00
2023-05-20T06:49:06.568Z,17.00
2023-05-20T06:51:34.468Z,17.10
2023-05-20T06:54:02.617Z,17.10
2023-05-20T06:56:31.734Z,17.20
2023-05-20T06:59:00.628Z,17.30
2023-05-20T07:01:29.173Z,17.40
2023-05-20T07:03:59.109Z,17.50
2023-05-20T07:06:27.035Z,17.40
2023-05-20T07:08:55.395Z,17.50
2023-05-20T07:11:23.409Z,17.60
2023-05-20T07:13:51.322Z,17.70
2023-05-20T07:16:19.466Z,17.70
2023-05-20T07:18:53.873Z,17.90
2023-05-20T07:21:23.536Z,17.90
2023-05-20T07:24:04.198Z,18.00
2023-05-20T07:26:33.692Z,18.00
2023-05-20T07:29:01.943Z,18.00
2023-05-20T07:31:29.915Z,18.00
2023-05-20T07:33:58.013Z,18.00
2023-05-20T07:36:29.350Z,18.00
2023-05-20T07:39:04.402Z,18.00
2023-05-20T07:41:36.808Z,18.00
2023-05-20T07:44:06.680Z,18.00
2023-05-20T07:46:36.590Z,18.00
2023-05-20T07:49:05.843Z,18.00
2023-05-20T07:51:36.219Z,18.00
2023-05-20T07:54:04.696Z,18.00
2023-05-20T07:56:33.275Z,18.10
2023-05-20T07:59:03.249Z,18.20
2023-05-20T08:01:35.735Z,18.10
2023-05-20T08:04:05.176Z,18.20
2023-05-20T08:06:33.398Z,18.20
2023-05-20T08:09:04.425Z,18.20
2023-05-20T08:11:39.116Z,18.30
2023-05-20T08:14:07.031Z,18.30
2023-05-20T08:16:40.437Z,18.30
2023-05-20T08:19:08.658Z,18.40
2023-05-20T08:21:36.610Z,18.40
2023-05-20T08:24:07.389Z,18.40
2023-05-20T08:26:36.769Z,18.40
2023-05-20T08:29:04.721Z,18.40
2023-05-20T08:31:34.333Z,18.40
2023-05-20T08:34:03.239Z,18.40
2023-05-20T08:36:31.376Z,18.50
2023-05-20T08:38:59.302Z,18.60
2023-05-20T08:41:28.642Z,18.70
2023-05-20T08:43:58.263Z,18.80
2023-05-20T08:46:27.017Z,19.00
2023-05-20T08:48:57.036Z,19.00
2023-05-20T08:51:28.708Z,19.00
2023-05-20T08:53:56.665Z,19.10
2023-05-20T08:56:28.736Z,19.20
2023-05-20T08:59:00.023Z,19.20
2023-05-20T09:01:27.979Z,19.30
2023-05-20T09:03:56.036Z,19.40
2023-05-20T09:06:24.146Z,19.30
2023-05-20T09:08:52.629Z,19.40
2023-05-20T09:11:21.710Z,19.20
2023-05-20T09:13:51.156Z,19.20
2023-05-20T09:16:20.589Z,19.20
2023-05-20T09:18:48.537Z,19.40
2023-05-20T09:21:16.599Z,19.60
2023-05-20T09:23:48.585Z,19.70
2023-05-20T09:26:18.713Z,19.70
2023-05-20T09:28:47.037Z,19.70
2023-05-20T09:31:15.782Z,19.80
2023-05-20T09:33:45.249Z,19.90
2023-05-20T09:36:16.593Z,19.90
2023-05-20T09:38:47.521Z,20.00
2023-05-20T09:41:16.843Z,20.00
2023-05-20T09:43:46.865Z,20.00
2023-05-20T09:46:15.555Z,20.00
2023-05-20T09:48:45.860Z,20.00
2023-05-20T09:51:14.670Z,20.00
2023-05-20T09:53:43.053Z,19.90
2023-05-20T09:56:11.249Z,20.00
2023-05-20T09:58:41.583Z,20.00
2023-05-20T10:01:09.573Z,20.10
2023-05-20T10:03:37.952Z,20.10
2023-05-20T10:06:24.278Z,20.10
2023-05-20T10:09:06.482Z,20.20
2023-05-20T10:11:42.255Z,20.50
2023-05-20T10:14:35.053Z,20.80
2023-05-20T10:17:12.087Z,20.80
2023-05-20T10:19:40.100Z,20.70
2023-05-20T10:22:10.882Z,20.80
2023-05-20T10:24:40.980Z,20.60
2023-05-20T10:27:11.104Z,20.40
2023-05-20T10:32:27.433Z,20.40
2023-05-20T10:35:00.313Z,20.70
2023-05-20T10:37:31.904Z,21.00
2023-05-20T10:40:09.594Z,20.90
2023-05-20T10:42:37.493Z,20.90
2023-05-20T10:45:06.424Z,20.90
2023-05-20T10:47:34.757Z,21.00
2023-05-20T10:50:04.780Z,21.00
2023-05-20T10:52:37.374Z,21.10
2023-05-20T10:55:06.172Z,21.00
2023-05-20T10:57:35.809Z,20.80
2023-05-20T11:00:10.810Z,20.90
2023-05-20T11:02:39.575Z,20.90
2023-05-20T11:05:11.501Z,21.20
2023-05-20T11:07:40.802Z,21.40
2023-05-20T11:10:10.597Z,21.80
2023-05-20T11:12:38.667Z,21.90
2023-05-20T11:15:08.066Z,21.60
2023-05-20T11:17:36.135Z,21.80
2023-05-20T11:20:05.142Z,21.60
2023-05-20T11:22:33.013Z,21.30
2023-05-20T11:25:07.241Z,21.20
2023-05-20T11:27:35.178Z,21.30
2023-05-20T11:30:04.013Z,21.20
2023-05-20T11:32:32.311Z,21.20
2023-05-20T11:35:00.321Z,21.00
2023-05-20T11:37:28.331Z,20.90
2023-05-20T11:40:09.417Z,20.80
2023-05-20T11:42:38.100Z,20.80
2023-05-20T11:45:07.008Z,20.90
2023-05-20T11:47:34.944Z,20.90
2023-05-20T11:50:03.710Z,20.90
2023-05-20T11:52:34.244Z,21.00
2023-05-20T11:55:02.134Z,21.20
2023-05-20T11:57:32.438Z,21.50
2023-05-20T12:00:00.308Z,21.80
2023-05-20T12:02:28.262Z,22.00
2023-05-20T12:04:56.271Z,21.80
2023-05-20T12:07:24.403Z,22.10
2023-05-20T12:09:52.300Z,22.40
2023-05-20T12:12:20.217Z,22.80
2023-05-20T12:14:49.474Z,23.10
2023-05-20T12:17:17.368Z,23.50
2023-05-20T12:19:45.768Z,23.80
2023-05-20T12:22:13.769Z,24.30
2023-05-20T12:24:41.640Z,24.30
2023-05-20T12:27:10.232Z,23.90
2023-05-20T12:29:38.142Z,23.60
2023-05-20T12:32:08.222Z,23.40
2023-05-20T12:34:36.120Z,23.40
2023-05-20T12:37:04.041Z,23.30
2023-05-20T12:39:31.956Z,23.40
2023-05-20T12:41:59.920Z,23.90
2023-05-20T12:44:28.252Z,24.90
2023-05-20T12:46:56.564Z,25.90
2023-05-20T12:49:25.842Z,25.90
2023-05-20T12:51:53.754Z,25.40
2023-05-20T12:54:21.802Z,24.60
2023-05-20T12:56:49.774Z,24.40
2023-05-20T12:59:17.761Z,24.80
2023-05-20T13:01:45.627Z,26.00
2023-05-20T13:04:13.526Z,27.30
2023-05-20T13:06:43.653Z,28.50
2023-05-20T13:09:11.562Z,29.30
2023-05-20T13:11:39.448Z,29.90
2023-05-20T13:14:07.458Z,30.50
2023-05-20T13:16:35.529Z,31.10
2023-05-20T13:19:03.472Z,31.60
2023-05-20T13:21:31.847Z,31.70
2023-05-20T13:24:02.082Z,31.40
2023-05-20T13:26:30.075Z,31.30
2023-05-20T13:28:58.728Z,31.80
2023-05-20T13:31:26.666Z,32.80
2023-05-20T13:33:55.200Z,32.10
2023-05-20T13:36:23.150Z,30.60
2023-05-20T13:38:51.469Z,30.30
2023-05-20T13:41:20.754Z,29.40
2023-05-20T13:43:48.630Z,28.30
2023-05-20T13:46:18.250Z,27.90
2023-05-20T13:48:46.352Z,27.60
2023-05-20T13:51:14.284Z,27.20
2023-05-20T13:53:42.158Z,28.20
2023-05-20T13:56:10.164Z,29.50
2023-05-20T13:58:39.428Z,30.80
2023-05-20T14:01:07.531Z,31.30
2023-05-20T14:03:37.323Z,31.00
2023-05-20T14:06:05.920Z,31.00
2023-05-20T14:08:34.153Z,31.10
2023-05-20T14:11:02.288Z,31.30
2023-05-20T14:13:30.160Z,31.90
2023-05-20T14:15:59.461Z,31.80
2023-05-20T14:18:27.424Z,31.00
2023-05-20T14:20:56.323Z,30.70
2023-05-20T14:23:24.279Z,30.20
2023-05-20T14:25:52.183Z,29.90
2023-05-20T14:28:20.067Z,29.70
2023-05-20T14:30:47.986Z,29.80
2023-05-20T14:33:17.207Z,29.60
2023-05-20T14:35:45.153Z,30.10
2023-05-20T14:38:13.059Z,31.20
2023-05-20T14:40:41.004Z,31.40
2023-05-20T14:43:08.887Z,32.10
2023-05-20T14:45:36.798Z,33.30
2023-05-20T14:48:04.885Z,33.70
2023-05-20T14:50:34.350Z,33.80
2023-05-20T14:53:02.558Z,33.70
2023-05-20T14:55:30.508Z,34.40
2023-05-20T14:57:58.404Z,34.70
2023-05-20T15:00:26.298Z,34.90
2023-05-20T15:02:54.340Z,34.30
2023-05-20T15:05:22.464Z,32.80
2023-05-20T15:07:51.959Z,32.80
2023-05-20T15:10:19.866Z,33.30
2023-05-20T15:12:47.750Z,33.40
2023-05-20T15:15:15.638Z,33.50
2023-05-20T15:17:43.558Z,33.80
2023-05-20T15:20:12.201Z,33.40
2023-05-20T15:22:41.384Z,33.70
2023-05-20T15:25:10.839Z,34.10
2023-05-20T15:27:38.721Z,34.70
2023-05-20T15:30:07.898Z,35.40
2023-05-20T15:32:35.957Z,35.50
2023-05-20T15:35:04.288Z,34.50
2023-05-20T15:37:32.278Z,33.70
2023-05-20T15:40:00.218Z,33.30
2023-05-20T15:42:29.461Z,32.30
2023-05-20T15:44:57.372Z,31.20
2023-05-20T15:47:25.287Z,30.20
2023-05-20T15:49:54.394Z,29.30
2023-05-20T15:52:22.303Z,28.70
2023-05-20T15:54:50.212Z,28.40
2023-05-20T15:57:18.105Z,28.20
2023-05-20T15:59:47.371Z,27.90
2023-05-20T16:02:15.360Z,27.60
2023-05-20T16:04:43.267Z,27.20
2023-05-20T16:07:11.250Z,26.70
2023-05-20T16:09:39.185Z,26.70
2023-05-20T16:12:07.538Z,26.60
2023-05-20T16:14:35.489Z,26.40
2023-05-20T16:17:04.955Z,26.30
2023-05-20T16:19:32.999Z,26.20
2023-05-20T16:22:01.232Z,26.00
2023-05-20T16:24:29.098Z,26.00
2023-05-20T16:26:56.997Z,25.90
2023-05-20T16:29:24.877Z,25.80
2023-05-20T16:31:52.932Z,25.60
2023-05-20T16:34:22.339Z,25.50
2023-05-20T16:36:50.282Z,25.50
2023-05-20T16:39:18.157Z,25.40
2023-05-20T16:41:46.234Z,25.20
2023-05-20T16:44:14.120Z,25.00
2023-05-20T16:46:42.085Z,24.80
2023-05-20T16:49:10.022Z,24.70
2023-05-20T16:51:39.254Z,24.70
2023-05-20T16:54:08.125Z,24.60
2023-05-20T16:56:36.756Z,24.50
2023-05-20T16:59:04.782Z,24.30
2023-05-20T17:01:33.021Z,24.10
2023-05-20T17:04:01.196Z,24.00
2023-05-20T17:06:33.947Z,24.00
2023-05-20T17:09:04.466Z,23.80
2023-05-20T17:11:32.439Z,23.70
2023-05-20T17:14:00.482Z,23.60
2023-05-20T17:16:28.564Z,23.50
2023-05-20T17:18:57.446Z,23.40
2023-05-20T17:21:25.452Z,23.40
2023-05-20T17:23:53.370Z,23.30
2023-05-20T17:26:23.212Z,23.20
2023-05-20T17:28:51.226Z,23.20
2023-05-20T17:31:19.273Z,23.20
2023-05-20T17:33:47.186Z,23.30
2023-05-20T17:36:16.156Z,23.30
2023-05-20T17:38:44.196Z,23.30
2023-05-20T17:41:12.077Z,23.20
2023-05-20T17:43:41.321Z,23.00
2023-05-20T17:46:09.235Z,22.90
2023-05-20T17:48:37.169Z,22.90
2023-05-20T17:51:06.038Z,22.80
2023-05-20T17:53:33.937Z,22.80
2023-05-20T17:56:01.901Z,22.70
2023-05-20T17:58:31.173Z,22.60
2023-05-20T18:01:01.372Z,22.50
2023-05-20T18:03:30.033Z,22.50
2023-05-20T18:05:58.184Z,22.50
2023-05-20T18:08:26.188Z,22.50
2023-05-20T18:10:54.214Z,22.40
2023-05-20T18:13:22.243Z,22.40
2023-05-20T18:15:50.212Z,22.20
2023-05-20T18:18:19.449Z,22.20
2023-05-20T18:20:47.452Z,22.20
2023-05-20T18:23:15.539Z,22.10
2023-05-20T18:25:43.954Z,22.00
2023-05-20T18:28:13.132Z,21.90
2023-05-20T18:30:41.168Z,21.80
2023-05-20T18:33:09.123Z,21.70
2023-05-20T18:35:39.092Z,21.70
2023-05-20T18:38:07.133Z,21.60
2023-05-20T18:40:35.223Z,21.50
2023-05-20T18:43:03.601Z,21.40
2023-05-20T18:45:31.515Z,21.40
2023-05-20T18:48:00.024Z,21.40
2023-05-20T18:50:28.157Z,21.40
2023-05-20T18:52:57.406Z,21.40
2023-05-20T18:55:25.633Z,21.30
2023-05-20T18:57:53.556Z,21.30
2023-05-20T19:00:21.497Z,21.20
2023-05-20T19:02:49.452Z,21.10
2023-05-20T19:05:17.489Z,21.10
2023-05-20T19:07:45.472Z,21.00
2023-05-20T19:10:15.200Z,21.00
2023-05-20T19:12:43.617Z,21.00
2023-05-20T19:15:12.003Z,20.90
2023-05-20T19:17:40.000Z,20.80
2023-05-20T19:20:10.383Z,20.80
2023-05-20T19:22:38.638Z,20.80
2023-05-20T19:25:07.445Z,20.70
2023-05-20T19:27:36.769Z,20.70
2023-05-20T19:30:05.038Z,20.70
2023-05-20T19:32:33.302Z,20.60
2023-05-20T19:35:01.252Z,20.60
2023-05-20T19:37:29.207Z,20.50
2023-05-20T19:39:57.140Z,20.60
2023-05-20T19:42:25.226Z,20.50
2023-05-20T19:44:54.933Z,20.50
2023-05-20T19:47:23.092Z,20.40
2023-05-20T19:49:51.057Z,20.20
2023-05-20T19:52:19.695Z,20.20
2023-05-20T19:54:48.391Z,20.20
2023-05-20T19:57:16.336Z,20.20
2023-05-20T19:59:44.566Z,20.10
2023-05-20T20:02:14.732Z,20.10
2023-05-20T20:04:42.942Z,20.10
2023-05-20T20:07:10.912Z,20.00
2023-05-20T20:09:38.856Z,20.00
2023-05-20T20:12:07.822Z,19.90
2023-05-20T20:14:35.719Z,20.00
2023-05-20T20:17:03.629Z,20.00
2023-05-20T20:19:33.995Z,19.90
2023-05-20T20:22:01.944Z,19.80
2023-05-20T20:24:29.812Z,19.80
2023-05-20T20:26:58.225Z,19.80
2023-05-20T20:29:26.229Z,19.70
2023-05-20T20:31:55.001Z,19.80
2023-05-20T20:34:22.956Z,19.80
2023-05-20T20:36:53.101Z,19.80
2023-05-20T20:39:21.144Z,19.70
2023-05-20T20:41:50.724Z,19.70
2023-05-20T20:44:22.345Z,19.60
2023-05-20T20:46:51.362Z,19.60
2023-05-20T20:49:19.651Z,19.60
2023-05-20T20:51:48.510Z,19.60
2023-05-20T20:54:17.778Z,19.50
2023-05-20T20:56:47.146Z,19.40
2023-05-20T20:59:15.802Z,19.40
2023-05-20T21:01:44.798Z,19.40
2023-05-20T21:04:13.674Z,19.30
2023-05-20T21:06:42.160Z,19.30
2023-05-20T21:09:11.509Z,19.30
2023-05-20T21:11:42.780Z,19.20
2023-05-20T21:14:10.941Z,19.20
2023-05-20T21:16:38.930Z,19.20
2023-05-20T21:19:06.854Z,19.20
2023-05-20T21:21:34.882Z,19.20
2023-05-20T21:24:02.932Z,19.30
2023-05-20T21:26:30.841Z,19.20
2023-05-20T21:29:01.716Z,19.20
2023-05-20T21:31:29.882Z,19.10
2023-05-20T21:33:57.820Z,19.10
2023-05-20T21:36:25.809Z,19.10
2023-05-20T21:38:53.719Z,19.10
2023-05-20T21:41:23.351Z,19.10
2023-05-20T21:43:51.397Z,19.10
2023-05-20T21:46:20.772Z,19.10
2023-05-20T21:48:48.682Z,19.00
2023-05-20T21:51:16.595Z,19.00
2023-05-20T21:53:44.471Z,18.90
2023-05-20T21:56:12.369Z,18.90
2023-05-20T21:58:41.762Z,18.90
